Time;durP1;ratioP1;P1;durP2;ratioP2;P2;SDS_P1;SDS_P2;PMS_P1;PMS_P2;Temp;Humidity;BMP_temperature;BMP_pressure;BME280_temperature;BME280_humidity;BME280_pressure;Samples;Min_cycle;Max_cycle;Signal;HPM_P1;HPM_P2
2021/06/11 00:01:07;;;;;;;;;;;;;;;25.60;40.88;101418.63;4986642;28;96982;-82
2021/06/11 00:03:33;;;;;;;;;;;;;;;25.59;40.90;101420.47;4992353;28;96032;-82
2021/06/11 00:05:59;;;;;;;;;;;;;;;25.49;41.14;101421.38;4994524;28;96260;-82
2021/06/11 00:08:29;;;;;;;;;;;;;;;25.42;41.60;101427.31;4984693;28;98133;-83
2021/06/11 00:10:55;;;;;;;;;;;;;;;25.13;42.40;101441.66;4992070;28;98420;-84
2021/06/11 00:13:22;;;;;;;;;;;;;;;25.16;42.39;101433.28;4980140;28;96756;-82
2021/06/11 00:15:48;;;;;;;;;;;;;;;25.40;41.41;101428.47;4970822;28;97603;-82
2021/06/11 00:18:14;;;;;;;;;;;;;;;25.28;41.80;101427.66;4962720;28;98009;-83
2021/06/11 00:20:40;;;;;;;;;;;;;;;25.22;40.92;101430.03;4970926;28;99659;-82
2021/06/11 00:23:07;;;;;;;;;;;;;;;25.38;40.70;101430.44;4972128;28;98438;-82
2021/06/11 00:25:35;;;;;;;;;;;;;;;25.70;40.04;101425.78;4976465;28;96905;-83
2021/06/11 00:28:01;;;;;;;;;;;;;;;25.93;39.45;101439.16;4975905;28;98578;-82
2021/06/11 00:30:28;;;;;;;;;;;;;;;25.66;39.74;101431.63;4971280;28;98833;-81
2021/06/11 00:32:54;;;;;;;;;;;;;;;25.69;39.19;101436.75;4974233;28;96805;-81
2021/06/11 00:35:20;;;;;;;;;;;;;;;25.68;39.33;101426.91;4974544;28;96681;-82
2021/06/11 00:37:46;;;;;;;;;;;;;;;25.57;39.27;101422.47;4973658;28;101355;-81
2021/06/11 00:40:12;;;;;;;;;;;;;;;25.62;40.20;101425.59;4967304;28;99049;-82
2021/06/11 00:42:40;;;;;;;;;;;;;;;25.38;40.87;101419.63;4975649;28;96660;-80
2021/06/11 00:45:08;;;;;;;;;;;;;;;25.76;40.42;101419.84;4969735;28;97951;-83
2021/06/11 00:47:33;;;;;;;;;;;;;;;25.55;40.61;101420.84;4974920;28;98661;-83
2021/06/11 00:50:00;;;;;;;;;;;;;;;25.60;40.19;101419.47;4973480;28;97997;-82
2021/06/11 00:52:26;;;;;;;;;;;;;;;25.80;39.94;101425.81;4973185;28;98716;-80
2021/06/11 00:54:52;;;;;;;;;;;;;;;25.56;40.48;101418.00;4976083;28;96932;-83
2021/06/11 00:57:18;;;;;;;;;;;;;;;25.36;41.07;101419.75;4978043;28;97956;-82
2021/06/11 00:59:45;;;;;;;;;;;;;;;25.39;42.00;101418.63;4975682;28;100744;-81
2021/06/11 01:02:15;;;;;;;;;;;;;;;25.44;42.38;101424.50;4981747;28;96964;-82
2021/06/11 01:04:41;;;;;;;;;;;;;;;25.23;42.87;101429.03;4980920;28;96886;-82
2021/06/11 01:07:07;;;;;;;;;;;;;;;25.38;42.91;101419.63;4983013;28;98437;-84
2021/06/11 01:09:36;;;;;;;;;;;;;;;25.20;43.99;101422.06;4981337;28;101313;-83
2021/06/11 01:12:02;;;;;;;;;;;;;;;24.89;44.17;101428.34;4981104;28;96795;-82
2021/06/11 01:14:29;;;;;;;;;;;;;;;25.02;43.40;101423.63;4983242;28;96868;-83
2021/06/11 01:16:57;;;;;;;;;;;;;;;24.94;42.75;101421.56;4972854;28;101552;-83
2021/06/11 01:19:27;;;;;;;;;;;;;;;25.02;42.70;101429.03;4988312;28;101623;-83
2021/06/11 01:21:59;;;;;;;;;;;;;;;25.01;42.46;101422.78;4979680;28;96943;-81
2021/06/11 01:24:28;;;;;;;;;;;;;;;24.93;42.99;101417.19;4976025;28;96836;-82
2021/06/11 01:26:56;;;;;;;;;;;;;;;25.17;42.54;101421.47;4976662;28;99286;-82
2021/06/11 01:29:24;;;;;;;;;;;;;;;25.11;42.80;101417.44;4976240;28;98138;-82
2021/06/11 01:31:52;;;;;;;;;;;;;;;25.37;42.25;101420.59;4968307;28;96818;-81
2021/06/11 01:34:20;;;;;;;;;;;;;;;24.96;43.18;101419.59;4968985;28;96921;-82
2021/06/11 01:36:49;;;;;;;;;;;;;;;25.07;42.97;101421.41;4968190;28;97395;-82
2021/06/11 01:39:17;;;;;;;;;;;;;;;25.12;42.93;101423.72;4964394;28;97808;-83
2021/06/11 01:41:44;;;;;;;;;;;;;;;24.96;43.68;101416.91;4975462;28;96883;-83
2021/06/11 01:44:12;;;;;;;;;;;;;;;25.05;43.70;101412.56;4977916;28;96797;-81
2021/06/11 01:46:40;;;;;;;;;;;;;;;25.02;43.51;101413.69;4974269;28;101394;-82
2021/06/11 01:49:06;;;;;;;;;;;;;;;25.27;42.46;101417.81;4977462;28;101087;-82
2021/06/11 01:51:34;;;;;;;;;;;;;;;25.01;42.96;101411.97;4976169;28;96756;-82
2021/06/11 01:54:01;;;;;;;;;;;;;;;24.98;43.34;101411.38;4975507;28;98698;-82
2021/06/11 01:56:27;;;;;;;;;;;;;;;25.19;42.77;101408.69;4972849;28;99258;-83
2021/06/11 01:58:54;;;;;;;;;;;;;;;25.24;42.48;101398.31;4975890;28;99059;-82
2021/06/11 02:01:22;;;;;;;;;;;;;;;25.18;42.43;101413.22;4976967;28;97127;-83
2021/06/11 02:03:49;;;;;;;;;;;;;;;25.44;42.03;101408.25;4978556;28;97379;-84
2021/06/11 02:06:16;;;;;;;;;;;;;;;25.16;42.54;101408.94;4975439;28;101452;-82
2021/06/11 02:08:43;;;;;;;;;;;;;;;24.91;43.02;101416.44;4977359;28;99949;-83
2021/06/11 02:11:09;;;;;;;;;;;;;;;24.95;43.24;101417.88;4976022;28;97940;-82
2021/06/11 02:13:35;;;;;;;;;;;;;;;24.96;42.93;101424.16;4978496;28;96925;-82
2021/06/11 02:16:03;;;;;;;;;;;;;;;25.17;42.24;101416.06;4979321;28;98751;-82
2021/06/11 02:18:31;;;;;;;;;;;;;;;24.84;42.69;101411.66;4981730;28;96864;-82
2021/06/11 02:20:57;;;;;;;;;;;;;;;24.87;42.25;101414.97;4979584;28;98849;-82
2021/06/11 02:23:23;;;;;;;;;;;;;;;24.83;42.90;101409.94;4978131;28;96607;-83
2021/06/11 02:25:50;;;;;;;;;;;;;;;24.95;42.46;101415.19;4975161;28;99362;-84
2021/06/11 02:28:17;;;;;;;;;;;;;;;25.00;42.74;101412.13;4975915;28;97247;-81
2021/06/11 02:30:43;;;;;;;;;;;;;;;24.83;43.42;101421.59;4969202;28;96843;-82
2021/06/11 02:33:10;;;;;;;;;;;;;;;25.09;42.86;101418.56;4970545;28;97063;-81
2021/06/11 02:35:38;;;;;;;;;;;;;;;24.84;42.73;101412.50;4971902;28;99433;-82
2021/06/11 02:38:04;;;;;;;;;;;;;;;24.94;42.57;101409.94;4966635;28;99281;-82
2021/06/11 02:40:30;;;;;;;;;;;;;;;25.20;42.01;101413.97;4976567;28;96751;-82
2021/06/11 02:42:59;;;;;;;;;;;;;;;24.64;43.83;101413.34;4975292;28;97471;-82
2021/06/11 02:45:35;;;;;;;;;;;;;;;24.60;44.07;101420.00;4968906;28;99314;-83
2021/06/11 02:48:06;;;;;;;;;;;;;;;24.92;43.17;101420.00;4972375;28;100612;-82
2021/06/11 02:50:35;;;;;;;;;;;;;;;24.57;44.32;101418.41;4976170;28;97006;-82
2021/06/11 02:53:03;;;;;;;;;;;;;;;24.69;43.81;101421.91;4975363;28;97531;-82
2021/06/11 02:55:30;;;;;;;;;;;;;;;24.81;43.51;101415.47;4972859;28;99093;-82
2021/06/11 02:57:58;;;;;;;;;;;;;;;24.89;43.38;101415.72;4971138;28;100691;-82
2021/06/11 03:00:25;;;;;;;;;;;;;;;25.07;42.40;101417.84;4975934;28;96807;-83
2021/06/11 03:02:52;;;;;;;;;;;;;;;25.11;42.20;101422.00;4974246;28;97334;-82
2021/06/11 03:05:19;;;;;;;;;;;;;;;25.10;41.89;101421.13;4976086;28;98342;-83
2021/06/11 03:07:45;;;;;;;;;;;;;;;25.00;42.33;101421.09;4973797;28;98135;-82
2021/06/11 03:10:15;;;;;;;;;;;;;;;25.20;41.78;101424.78;4962342;28;97295;-82
2021/06/11 03:12:42;;;;;;;;;;;;;;;25.13;42.60;101428.13;4972943;28;97123;-82
2021/06/11 03:15:09;;;;;;;;;;;;;;;24.80;43.34;101434.53;4970907;28;99694;-82
2021/06/11 03:17:40;;;;;;;;;;;;;;;25.01;43.03;101433.59;4970548;28;99517;-82
2021/06/11 03:20:08;;;;;;;;;;;;;;;25.37;41.28;101429.56;4976462;28;96758;-82
2021/06/11 03:22:36;;;;;;;;;;;;;;;25.83;40.43;101438.25;4983481;28;96716;-82
2021/06/11 03:25:04;;;;;;;;;;;;;;;25.69;40.76;101431.34;4980411;28;98365;-81
2021/06/11 03:27:36;;;;;;;;;;;;;;;25.51;41.32;101432.94;4988755;28;98068;-82
2021/06/11 03:30:06;;;;;;;;;;;;;;;25.19;42.20;101446.53;4987063;28;97388;-82
2021/06/11 03:32:33;;;;;;;;;;;;;;;25.26;41.59;101440.47;4992970;28;96847;-82
2021/06/11 03:35:02;;;;;;;;;;;;;;;25.35;41.37;101431.53;4994380;28;96920;-82
2021/06/11 03:37:29;;;;;;;;;;;;;;;25.21;42.45;101436.44;4987216;28;100113;-82
2021/06/11 03:39:57;;;;;;;;;;;;;;;25.25;42.05;101435.19;4980866;28;96816;-83
2021/06/11 03:42:24;;;;;;;;;;;;;;;25.13;42.81;101436.25;4988385;28;96085;-83
2021/06/11 03:44:53;;;;;;;;;;;;;;;25.31;42.63;101434.66;4995312;28;98400;-83
2021/06/11 03:47:21;;;;;;;;;;;;;;;25.38;42.70;101436.72;4980940;28;98093;-82
2021/06/11 03:49:49;;;;;;;;;;;;;;;25.09;43.23;101437.47;4997241;28;95921;-83
2021/06/11 03:52:19;;;;;;;;;;;;;;;25.19;42.99;101430.31;4985702;28;97136;-83
2021/06/11 03:54:46;;;;;;;;;;;;;;;25.24;42.97;101430.78;4992362;28;96705;-83
2021/06/11 03:57:13;;;;;;;;;;;;;;;25.16;42.86;101431.41;4982226;28;100324;-82
2021/06/11 03:59:40;;;;;;;;;;;;;;;25.09;42.94;101429.38;4968560;28;96300;-82
2021/06/11 04:02:07;;;;;;;;;;;;;;;25.36;42.29;101427.00;4995018;28;96596;-83
2021/06/11 04:04:34;;;;;;;;;;;;;;;25.30;41.88;101424.81;4980362;28;101096;-82
2021/06/11 04:07:03;;;;;;;;;;;;;;;25.42;41.99;101421.06;4975628;28;100568;-82
2021/06/11 04:09:31;;;;;;;;;;;;;;;25.66;41.33;101418.09;4976238;28;96912;-82
2021/06/11 04:12:00;;;;;;;;;;;;;;;26.16;40.54;101421.69;4976206;28;97043;-82
2021/06/11 04:14:28;;;;;;;;;;;;;;;25.70;41.58;101424.94;4975915;28;98962;-82
2021/06/11 04:16:57;;;;;;;;;;;;;;;25.63;41.72;101424.63;4980730;28;99494;-81
2021/06/11 04:19:26;;;;;;;;;;;;;;;25.35;42.11;101415.31;4984148;28;96643;-82
2021/06/11 04:21:53;;;;;;;;;;;;;;;25.51;42.09;101408.56;4978843;28;96843;-81
2021/06/11 04:24:22;;;;;;;;;;;;;;;25.64;41.41;101420.06;4978051;28;101673;-82
2021/06/11 04:26:49;;;;;;;;;;;;;;;25.68;41.08;101419.66;4974018;28;100171;-83
2021/06/11 04:29:16;;;;;;;;;;;;;;;26.20;40.62;101423.09;4980013;28;97024;-82
2021/06/11 04:31:43;;;;;;;;;;;;;;;25.68;40.31;101419.66;4970550;28;96870;-82
2021/06/11 04:34:14;;;;;;;;;;;;;;;26.07;39.68;101411.66;4974025;28;98222;-82
2021/06/11 04:36:42;;;;;;;;;;;;;;;26.05;40.31;101414.53;4964703;28;98951;-81
2021/06/11 04:39:08;;;;;;;;;;;;;;;26.48;38.79;101411.50;4979782;28;96947;-82
2021/06/11 04:41:34;;;;;;;;;;;;;;;26.31;39.63;101409.50;4971371;28;96880;-82
2021/06/11 04:44:01;;;;;;;;;;;;;;;26.18;39.63;101425.13;4975930;28;101901;-81
2021/06/11 04:46:28;;;;;;;;;;;;;;;26.16;39.46;101413.56;4995264;28;98904;-82
2021/06/11 04:48:54;;;;;;;;;;;;;;;26.19;39.46;101413.25;4983978;28;96878;-82
2021/06/11 04:51:20;;;;;;;;;;;;;;;26.27;38.41;101408.03;4981911;28;96950;-82
2021/06/11 04:53:47;;;;;;;;;;;;;;;26.34;38.34;101414.63;4981391;28;96890;-82
2021/06/11 04:56:13;;;;;;;;;;;;;;;26.30;38.01;101417.75;4974612;28;98185;-82
2021/06/11 04:58:40;;;;;;;;;;;;;;;26.41;38.22;101423.91;4979110;28;97229;-81
2021/06/11 05:01:07;;;;;;;;;;;;;;;26.69;37.93;101418.66;4974881;28;97368;-79
2021/06/11 05:03:33;;;;;;;;;;;;;;;27.06;37.04;101413.38;4977353;28;100636;-81
2021/06/11 05:06:00;;;;;;;;;;;;;;;27.15;36.76;101409.81;4974547;28;102134;-80
2021/06/11 05:08:27;;;;;;;;;;;;;;;27.30;35.88;101409.22;4976459;28;97696;-81
2021/06/11 05:10:55;;;;;;;;;;;;;;;27.20;36.44;101412.94;4969691;28;97814;-83
2021/06/11 05:13:21;;;;;;;;;;;;;;;27.78;34.87;101416.34;4967497;28;99521;-81
2021/06/11 05:15:47;;;;;;;;;;;;;;;27.60;35.06;101415.44;4970309;28;97789;-82
2021/06/11 05:18:13;;;;;;;;;;;;;;;27.79;35.29;101414.50;4968105;28;99867;-82
2021/06/11 05:20:39;;;;;;;;;;;;;;;27.75;34.92;101414.81;4974916;28;97157;-82
2021/06/11 05:23:05;;;;;;;;;;;;;;;28.07;34.47;101418.94;4969438;28;101063;-82
2021/06/11 05:25:31;;;;;;;;;;;;;;;28.00;34.66;101412.41;4976081;28;99747;-84
2021/06/11 05:27:58;;;;;;;;;;;;;;;28.27;34.50;101414.28;4978671;28;96744;-84
2021/06/11 05:30:25;;;;;;;;;;;;;;;28.07;33.47;101406.22;4977889;28;96772;-84
2021/06/11 05:32:51;;;;;;;;;;;;;;;28.19;33.50;101416.91;4975292;28;101321;-82
2021/06/11 05:35:18;;;;;;;;;;;;;;;28.07;32.50;101410.78;4973824;28;99477;-82
2021/06/11 05:37:44;;;;;;;;;;;;;;;28.38;32.30;101416.78;4975435;28;96838;-82
2021/06/11 05:40:10;;;;;;;;;;;;;;;28.12;33.14;101412.03;4977254;28;96903;-83
2021/06/11 05:42:36;;;;;;;;;;;;;;;28.78;31.92;101410.94;4976181;28;98997;-82
2021/06/11 05:45:04;;;;;;;;;;;;;;;28.77;31.57;101415.50;4975748;28;97786;-83
2021/06/11 05:47:30;;;;;;;;;;;;;;;28.33;31.72;101413.69;4977346;28;97058;-81
2021/06/11 05:49:56;;;;;;;;;;;;;;;28.70;31.53;101413.53;4972552;28;96843;-82
2021/06/11 05:52:21;;;;;;;;;;;;;;;28.99;30.81;101405.16;4969338;28;98844;-82
2021/06/11 05:54:47;;;;;;;;;;;;;;;29.34;29.73;101410.56;4968841;28;99159;-83
2021/06/11 05:57:13;;;;;;;;;;;;;;;29.40;30.07;101409.94;4976790;28;97328;-83
2021/06/11 05:59:39;;;;;;;;;;;;;;;29.61;29.59;101398.63;4977746;28;96910;-83
2021/06/11 06:02:07;;;;;;;;;;;;;;;29.11;30.25;101407.47;4973321;28;101971;-82
2021/06/11 06:04:33;;;;;;;;;;;;;;;28.83;29.81;101394.97;4977353;28;99952;-82
2021/06/11 06:06:59;;;;;;;;;;;;;;;28.57;30.19;101405.75;4977699;28;96790;-81
2021/06/11 06:09:25;;;;;;;;;;;;;;;29.32;29.21;101398.94;4969462;28;96835;-87
2021/06/11 06:11:55;;;;;;;;;;;;;;;29.13;29.32;101407.31;4980601;28;97802;-85
2021/06/11 06:14:21;;;;;;;;;;;;;;;29.06;29.45;101400.81;4976081;28;98075;-84
2021/06/11 06:16:47;;;;;;;;;;;;;;;28.96;29.39;101398.16;4978137;28;96745;-83
2021/06/11 06:19:14;;;;;;;;;;;;;;;29.37;28.73;101401.22;4980301;28;96914;-83
2021/06/11 06:21:40;;;;;;;;;;;;;;;29.48;28.92;101392.75;4985782;28;99632;-85
2021/06/11 06:24:08;;;;;;;;;;;;;;;29.54;29.04;101392.13;4985751;28;99827;-85
2021/06/11 06:26:35;;;;;;;;;;;;;;;29.54;28.63;101392.97;4982604;28;96894;-85
2021/06/11 06:29:02;;;;;;;;;;;;;;;29.59;29.06;101392.50;4984901;28;96612;-85
2021/06/11 06:31:28;;;;;;;;;;;;;;;29.86;28.65;101391.44;4982469;28;97087;-85
2021/06/11 06:33:54;;;;;;;;;;;;;;;30.31;27.73;101389.25;4980142;28;98994;-84
2021/06/11 06:36:22;;;;;;;;;;;;;;;30.18;28.28;101390.75;4978182;28;96755;-84
2021/06/11 06:38:51;;;;;;;;;;;;;;;30.25;27.88;101389.91;4978536;28;96993;-86
2021/06/11 06:41:17;;;;;;;;;;;;;;;30.57;27.56;101385.56;4968093;28;100778;-85
2021/06/11 06:43:44;;;;;;;;;;;;;;;30.49;27.44;101383.66;4974643;28;99531;-85
2021/06/11 06:46:10;;;;;;;;;;;;;;;31.10;26.82;101388.66;4975826;28;96802;-84
2021/06/11 06:48:37;;;;;;;;;;;;;;;31.47;25.73;101388.06;4983170;28;96983;-83
2021/06/11 06:51:03;;;;;;;;;;;;;;;30.70;26.89;101389.50;4981714;28;100253;-85
2021/06/11 06:53:35;;;;;;;;;;;;;;;30.79;26.92;101384.88;4980169;28;98165;-86
2021/06/11 06:56:03;;;;;;;;;;;;;;;31.24;26.82;101387.94;4980440;28;96760;-85
2021/06/11 06:58:29;;;;;;;;;;;;;;;30.84;27.10;101385.25;4981064;28;96803;-86
2021/06/11 07:00:59;;;;;;;;;;;;;;;30.56;27.87;101381.97;4983500;28;100098;-86
2021/06/11 07:03:25;;;;;;;;;;;;;;;30.84;27.34;101385.25;4973821;28;99196;-86
2021/06/11 07:05:51;;;;;;;;;;;;;;;30.99;27.16;101375.31;4981927;28;96725;-85
2021/06/11 07:08:31;;;;;;;;;;;;;;;30.68;27.87;101375.16;4979828;28;97554;-86
2021/06/11 07:13:47;;;;;;;;;;;;;;;30.91;27.35;101388.13;4970757;28;99006;-86
2021/06/11 07:22:11;;;;;;;;;;;;;;;30.77;27.96;101385.06;4980327;28;98659;-85
2021/06/11 07:24:42;;;;;;;;;;;;;;;30.92;27.62;101381.66;4984044;28;98257;-85
2021/06/11 07:27:11;;;;;;;;;;;;;;;31.08;27.70;101387.97;4970628;28;97779;-84
2021/06/11 07:29:42;;;;;;;;;;;;;;;31.38;27.35;101386.38;4989433;28;96515;-86
2021/06/11 07:32:08;;;;;;;;;;;;;;;31.06;27.72;101395.47;4992612;28;99768;-85
2021/06/11 07:37:18;;;;;;;;;;;;;;;31.21;27.00;101390.19;4989993;28;97388;-86
2021/06/11 07:39:45;;;;;;;;;;;;;;;30.08;28.72;101394.44;4988491;28;96760;-85
2021/06/11 07:42:14;;;;;;;;;;;;;;;29.97;28.96;101392.03;4988529;28;98650;-85
2021/06/11 07:44:42;;;;;;;;;;;;;;;30.65;27.61;101386.44;4988551;28;99776;-85
2021/06/11 07:47:10;;;;;;;;;;;;;;;30.39;28.07;101385.69;4989518;28;97053;-86
2021/06/11 07:49:38;;;;;;;;;;;;;;;31.04;27.28;101386.59;4989561;28;96996;-83
2021/06/11 07:52:04;;;;;;;;;;;;;;;30.99;27.66;101388.09;4983755;28;100390;-85
2021/06/11 07:54:30;;;;;;;;;;;;;;;31.24;27.14;101387.13;4985308;28;98459;-85
2021/06/11 07:56:56;;;;;;;;;;;;;;;30.03;28.52;101380.47;4989984;28;97520;-84
2021/06/11 07:59:26;;;;;;;;;;;;;;;30.34;28.35;101382.59;4982360;28;96998;-85
2021/06/11 08:01:52;;;;;;;;;;;;;;;29.71;29.46;101380.31;4985797;28;98157;-83
2021/06/11 08:04:18;;;;;;;;;;;;;;;30.60;28.50;101387.94;4968318;28;97996;-85
2021/06/11 08:06:47;;;;;;;;;;;;;;;30.97;27.89;101390.19;4972705;28;97302;-84
2021/06/11 08:09:14;;;;;;;;;;;;;;;30.74;28.30;101382.66;4986103;28;97248;-85
2021/06/11 08:11:43;;;;;;;;;;;;;;;31.10;27.96;101385.09;4990213;28;98645;-85
2021/06/11 08:14:09;;;;;;;;;;;;;;;30.98;27.94;101376.38;4989738;28;98486;-85
2021/06/11 08:16:53;;;;;;;;;;;;;;;30.85;28.00;101381.50;4984694;28;96977;-83
2021/06/11 08:19:21;;;;;;;;;;;;;;;30.78;27.83;101369.56;4982581;28;96899;-84
2021/06/11 08:21:47;;;;;;;;;;;;;;;30.90;27.79;101370.91;4980326;28;100007;-84
2021/06/11 08:24:13;;;;;;;;;;;;;;;29.82;29.72;101374.56;4981978;28;99107;-84
2021/06/11 08:26:39;;;;;;;;;;;;;;;30.75;28.36;101376.19;4979723;28;97524;-84
2021/06/11 08:29:23;;;;;;;;;;;;;;;31.08;27.80;101371.59;4984019;28;97019;-84
2021/06/11 08:31:49;;;;;;;;;;;;;;;30.10;29.32;101376.06;4966410;28;100218;-84
2021/06/11 08:34:16;;;;;;;;;;;;;;;30.96;28.03;101367.50;4983472;28;100413;-84
2021/06/11 08:36:43;;;;;;;;;;;;;;;31.12;27.41;101362.03;4997292;28;96505;-85
2021/06/11 08:39:10;;;;;;;;;;;;;;;30.17;28.93;101367.22;4989256;28;97366;-85
2021/06/11 08:41:36;;;;;;;;;;;;;;;31.09;27.73;101378.78;4978835;28;99595;-83
2021/06/11 08:44:17;;;;;;;;;;;;;;;31.06;28.16;101370.06;4976976;28;98810;-83
2021/06/11 08:46:45;;;;;;;;;;;;;;;31.38;27.55;101369.13;4965633;28;97548;-83
2021/06/11 08:49:11;;;;;;;;;;;;;;;30.47;28.46;101374.75;4977574;28;97107;-84
2021/06/11 08:51:51;;;;;;;;;;;;;;;31.21;27.76;101371.06;4981436;28;98853;-83
2021/06/11 08:54:32;;;;;;;;;;;;;;;31.39;27.36;101373.59;4984019;28;99282;-83
2021/06/11 08:59:45;;;;;;;;;;;;;;;30.47;28.66;101375.63;4981325;28;97000;-85
2021/06/11 09:02:12;;;;;;;;;;;;;;;30.40;28.94;101382.75;4977095;28;98384;-82
2021/06/11 09:04:53;;;;;;;;;;;;;;;29.84;29.32;101375.25;4981489;28;98996;-81
2021/06/11 09:07:22;;;;;;;;;;;;;;;31.38;27.72;101380.91;4988173;28;96619;-82
2021/06/11 09:09:49;;;;;;;;;;;;;;;31.43;26.74;101386.72;4994014;28;97746;-82
2021/06/11 09:12:31;;;;;;;;;;;;;;;32.03;25.83;101384.28;4991769;28;99433;-84
2021/06/11 09:14:58;;;;;;;;;;;;;;;32.18;25.65;101370.75;4975808;28;99335;-85
2021/06/11 09:17:40;;;;;;;;;;;;;;;32.08;25.05;101381.03;4972965;28;97730;-84
2021/06/11 09:20:11;;;;;;;;;;;;;;;31.99;25.45;101374.75;4977271;28;96703;-86
2021/06/11 09:22:37;;;;;;;;;;;;;;;32.41;24.66;101377.13;4995510;28;98279;-85
2021/06/11 09:25:18;;;;;;;;;;;;;;;32.17;24.82;101374.50;4993403;28;101100;-85
2021/06/11 09:27:54;;;;;;;;;;;;;;;31.25;25.72;101376.00;4984904;28;97700;-86
2021/06/11 09:30:21;;;;;;;;;;;;;;;30.77;25.76;101378.75;4976891;28;96715;-84
2021/06/11 09:32:55;;;;;;;;;;;;;;;32.09;24.60;101371.81;4977592;28;100133;-85
2021/06/11 09:35:29;;;;;;;;;;;;;;;31.72;24.73;101380.69;4982686;28;100006;-85
2021/06/11 09:38:14;;;;;;;;;;;;;;;32.01;24.62;101382.78;4986502;28;96890;-84
2021/06/11 09:44:24;;;;;;;;;;;;;;;31.32;25.24;101378.03;5083490;27;97050;-83
2021/06/11 09:46:51;;;;;;;;;;;;;;;30.44;25.96;101369.66;5026445;27;96901;-82
2021/06/11 09:49:17;;;;;;;;;;;;;;;31.36;24.90;101371.22;5018532;28;99916;-82
2021/06/11 09:51:43;;;;;;;;;;;;;;;32.14;23.67;101365.84;5020596;28;101834;-82
2021/06/11 09:54:23;;;;;;;;;;;;;;;32.54;23.28;101360.09;5021619;28;97155;-82
2021/06/11 09:56:49;;;;;;;;;;;;;;;31.55;24.70;101357.16;5025372;28;96800;-81
2021/06/11 10:02:20;;;;;;;;;;;;;;;30.28;26.97;101362.28;5009031;28;97837;-86
2021/06/11 10:04:47;;;;;;;;;;;;;;;30.51;26.81;101356.25;5017150;28;97243;-85
2021/06/11 10:07:14;;;;;;;;;;;;;;;31.15;25.26;101356.25;5015354;28;97998;-83
2021/06/11 10:09:44;;;;;;;;;;;;;;;30.44;25.94;101356.88;5014978;28;99644;-84
2021/06/11 10:12:12;;;;;;;;;;;;;;;31.19;25.50;101354.84;5016785;28;99514;-82
2021/06/11 10:14:41;;;;;;;;;;;;;;;31.42;24.57;101357.72;5019184;28;96766;-85
2021/06/11 10:17:15;;;;;;;;;;;;;;;31.40;25.02;101353.44;5025779;28;96799;-86
2021/06/11 10:20:00;;;;;;;;;;;;;;;31.51;25.21;101358.53;5019433;28;97788;-83
2021/06/11 10:22:45;;;;;;;;;;;;;;;31.27;24.86;101357.56;5020706;28;101760;-85
2021/06/11 10:25:13;;;;;;;;;;;;;;;31.94;23.96;101357.19;5010717;28;96758;-83
2021/06/11 10:27:41;;;;;;;;;;;;;;;32.15;23.57;101354.72;5016382;28;97174;-83
2021/06/11 10:30:07;;;;;;;;;;;;;;;32.40;23.32;101353.53;5012113;28;100403;-82
2021/06/11 10:32:38;;;;;;;;;;;;;;;31.61;25.11;101351.03;5019465;28;100878;-81
2021/06/11 10:35:05;;;;;;;;;;;;;;;31.44;25.03;101358.38;5024867;28;97551;-84
2021/06/11 10:37:51;;;;;;;;;;;;;;;31.53;25.08;101353.75;5026458;28;97105;-83
2021/06/11 10:40:37;;;;;;;;;;;;;;;31.59;24.60;101350.31;5026120;28;99377;-81
2021/06/11 10:43:17;;;;;;;;;;;;;;;31.56;24.63;101354.25;5025095;28;98303;-82
2021/06/11 10:45:44;;;;;;;;;;;;;;;31.71;24.39;101364.47;5022591;28;96936;-80
2021/06/11 10:48:10;;;;;;;;;;;;;;;32.10;24.45;101359.00;5021346;28;96982;-81
2021/06/11 10:50:37;;;;;;;;;;;;;;;32.00;24.68;101351.88;5023085;28;100371;-83
2021/06/11 10:53:08;;;;;;;;;;;;;;;30.97;26.08;101351.97;5018182;28;99575;-82
2021/06/11 10:55:45;;;;;;;;;;;;;;;31.36;25.77;101350.22;5009601;28;97314;-82
2021/06/11 10:58:22;;;;;;;;;;;;;;;31.46;26.16;101359.06;5014328;28;97007;-82
2021/06/11 11:00:48;;;;;;;;;;;;;;;30.54;27.42;101356.75;5016548;28;101747;-83
2021/06/11 11:03:24;;;;;;;;;;;;;;;31.18;26.39;101344.97;5011728;28;99382;-83
2021/06/11 11:05:50;;;;;;;;;;;;;;;30.78;27.24;101354.03;5016176;28;96570;-82
2021/06/11 11:08:16;;;;;;;;;;;;;;;31.31;26.52;101349.06;5020128;28;96454;-81
2021/06/11 11:10:52;;;;;;;;;;;;;;;31.35;26.18;101351.25;5018981;28;99550;-81
2021/06/11 11:13:19;;;;;;;;;;;;;;;30.79;26.48;101346.69;5015754;28;100562;-81
2021/06/11 11:15:48;;;;;;;;;;;;;;;31.48;25.79;101342.50;5017632;28;96920;-82
2021/06/11 11:18:15;;;;;;;;;;;;;;;31.50;25.92;101349.50;5010591;28;96652;-83
2021/06/11 11:20:42;;;;;;;;;;;;;;;31.48;25.73;101340.63;5006462;28;98175;-82
2021/06/11 11:23:09;;;;;;;;;;;;;;;31.98;24.71;101351.19;5006508;28;100708;-83
2021/06/11 11:25:36;;;;;;;;;;;;;;;31.49;25.01;101346.94;5006770;28;96763;-83
2021/06/11 11:28:06;;;;;;;;;;;;;;;30.95;25.65;101345.81;5005950;28;96985;-82
2021/06/11 11:30:32;;;;;;;;;;;;;;;31.12;25.60;101340.19;5000782;28;100038;-84
2021/06/11 11:32:59;;;;;;;;;;;;;;;31.07;25.46;101342.59;5017324;28;99283;-82
2021/06/11 11:35:28;;;;;;;;;;;;;;;31.47;24.98;101343.53;5020213;28;96620;-83
2021/06/11 11:37:54;;;;;;;;;;;;;;;30.92;25.63;101333.38;5011490;28;96753;-83
2021/06/11 11:40:20;;;;;;;;;;;;;;;31.02;26.22;101331.31;5007350;28;100617;-83
2021/06/11 11:42:46;;;;;;;;;;;;;;;30.22;27.46;101338.44;5007922;28;99599;-82
2021/06/11 11:45:15;;;;;;;;;;;;;;;30.12;27.94;101339.63;4998100;28;96781;-84
2021/06/11 11:47:42;;;;;;;;;;;;;;;30.46;28.00;101333.00;5007228;28;96742;-83
2021/06/11 11:50:09;;;;;;;;;;;;;;;30.89;26.82;101331.84;5007841;28;99628;-81
2021/06/11 11:52:35;;;;;;;;;;;;;;;30.50;26.49;101330.84;5006896;28;97785;-83
2021/06/11 11:55:02;;;;;;;;;;;;;;;30.91;26.01;101319.91;5001602;28;97164;-82
2021/06/11 11:57:28;;;;;;;;;;;;;;;31.30;25.90;101326.34;5004736;28;96781;-81
2021/06/11 11:59:54;;;;;;;;;;;;;;;31.71;25.95;101312.56;5006502;28;99417;-81
2021/06/11 12:02:23;;;;;;;;;;;;;;;31.69;25.73;101315.47;5003937;28;100075;-82
2021/06/11 12:04:50;;;;;;;;;;;;;;;30.99;26.40;101307.09;5000978;28;97987;-83
2021/06/11 12:07:16;;;;;;;;;;;;;;;30.56;27.07;101308.34;4999723;28;96997;-81
2021/06/11 12:09:43;;;;;;;;;;;;;;;31.05;26.57;101311.88;4999380;28;100008;-82
2021/06/11 12:12:10;;;;;;;;;;;;;;;31.48;25.84;101317.91;5002652;28;97788;-82
2021/06/11 12:14:36;;;;;;;;;;;;;;;30.87;26.79;101309.34;4999040;28;96820;-82
2021/06/11 12:17:02;;;;;;;;;;;;;;;31.16;26.50;101308.81;4991131;28;98015;-82
2021/06/11 12:19:29;;;;;;;;;;;;;;;31.32;26.35;101310.63;4997986;28;100391;-83
2021/06/11 12:21:55;;;;;;;;;;;;;;;31.30;25.91;101314.59;5000964;28;98212;-82
2021/06/11 12:24:22;;;;;;;;;;;;;;;31.60;26.02;101317.38;4995663;28;97475;-82
2021/06/11 12:26:48;;;;;;;;;;;;;;;31.93;24.29;101315.34;4997765;28;96788;-82
2021/06/11 12:29:15;;;;;;;;;;;;;;;32.17;24.33;101310.78;4996826;28;101369;-82
2021/06/11 12:34:33;;;;;;;;;;;;;;;31.60;24.58;101305.59;5004184;28;96907;-83
2021/06/11 12:36:59;;;;;;;;;;;;;;;32.51;23.42;101300.25;4997109;28;96912;-83
2021/06/11 12:39:25;;;;;;;;;;;;;;;32.38;23.57;101300.88;4994474;28;97869;-84
2021/06/11 12:41:54;;;;;;;;;;;;;;;32.65;23.22;101301.34;4996550;28;101064;-83
2021/06/11 12:44:21;;;;;;;;;;;;;;;32.06;23.95;101299.22;4995251;28;97018;-83
2021/06/11 12:46:48;;;;;;;;;;;;;;;32.24;23.32;101288.00;5001501;28;97497;-82
2021/06/11 12:49:15;;;;;;;;;;;;;;;32.65;23.57;101285.78;5010405;28;99388;-83
2021/06/11 12:51:42;;;;;;;;;;;;;;;32.66;23.22;101297.56;5001633;28;100191;-84
2021/06/11 12:54:09;;;;;;;;;;;;;;;32.11;23.85;101293.19;5001220;28;96990;-83
2021/06/11 12:59:31;;;;;;;;;;;;;;;31.62;24.27;101288.03;4992221;28;97638;-83
2021/06/11 13:04:52;;;;;;;;;;;;;;;32.33;24.30;101288.78;4997555;28;96940;-84
2021/06/11 13:07:37;;;;;;;;;;;;;;;32.54;23.68;101291.72;4998111;28;97212;-83
2021/06/11 13:10:08;;;;;;;;;;;;;;;32.22;23.60;101291.97;4995759;28;100561;-83